createdAt,value
2022-10-03T00:02:24.309Z,11.17
2022-10-03T00:04:58.826Z,11.33
2022-10-03T00:07:46.356Z,11.28
2022-10-03T00:10:12.581Z,11.32
2022-10-03T00:12:42.706Z,11.41
2022-10-03T00:15:14.100Z,11.40
2022-10-03T00:17:52.848Z,11.47
2022-10-03T00:20:19.325Z,11.28
2022-10-03T00:23:05.985Z,11.26
2022-10-03T00:25:51.029Z,11.20
2022-10-03T00:28:37.506Z,11.14
2022-10-03T00:31:17.905Z,11.36
2022-10-03T00:34:07.619Z,11.28
2022-10-03T00:36:42.641Z,11.20
2022-10-03T00:39:31.572Z,11.38
2022-10-03T00:42:16.689Z,11.29
2022-10-03T00:45:02.851Z,11.37
2022-10-03T00:47:41.117Z,11.40
2022-10-03T00:50:15.648Z,11.36
2022-10-03T00:53:00.243Z,11.26
2022-10-03T00:55:40.993Z,11.35
2022-10-03T00:58:16.522Z,11.27
2022-10-03T01:00:46.418Z,11.34
2022-10-03T01:03:19.363Z,11.39
2022-10-03T01:06:04.456Z,11.46
2022-10-03T01:08:30.906Z,11.49
2022-10-03T01:11:04.130Z,11.39
2022-10-03T01:13:48.993Z,11.41
2022-10-03T01:16:18.335Z,11.52
2022-10-03T01:18:44.597Z,11.58
2022-10-03T01:21:19.596Z,11.65
2022-10-03T01:23:57.673Z,11.74
2022-10-03T01:26:53.317Z,11.81
2022-10-03T01:29:44.763Z,11.77
2022-10-03T01:32:16.833Z,11.92
2022-10-03T01:35:00.132Z,11.86
2022-10-03T01:37:32.997Z,11.80
2022-10-03T01:40:18.177Z,11.97
2022-10-03T01:42:54.968Z,11.90
2022-10-03T01:45:37.501Z,11.90
2022-10-03T01:48:12.715Z,11.93
2022-10-03T01:50:50.996Z,11.87
2022-10-03T01:53:33.182Z,11.77
2022-10-03T01:56:04.486Z,11.75
2022-10-03T01:58:34.475Z,11.83
2022-10-03T02:01:21.668Z,11.80
2022-10-03T02:04:04.323Z,11.73
2022-10-03T02:06:33.400Z,11.67
2022-10-03T02:09:27.441Z,11.67
2022-10-03T02:12:13.666Z,11.66
2022-10-03T02:14:51.702Z,11.67
2022-10-03T02:17:26.010Z,11.73
2022-10-03T02:20:09.297Z,11.67
2022-10-03T02:22:42.558Z,11.74
2022-10-03T02:25:14.584Z,11.57
2022-10-03T02:27:52.295Z,11.60
2022-10-03T02:30:18.818Z,11.57
2022-10-03T02:33:16.620Z,11.61
2022-10-03T02:35:45.637Z,11.57
2022-10-03T02:38:21.001Z,11.46
2022-10-03T02:41:07.013Z,11.38
2022-10-03T02:43:51.919Z,11.31
2022-10-03T02:46:36.854Z,11.38
2022-10-03T02:49:35.168Z,11.44
2022-10-03T02:52:05.465Z,11.40
2022-10-03T02:54:48.136Z,11.35
2022-10-03T02:57:45.267Z,11.34
2022-10-03T03:00:33.748Z,11.38
2022-10-03T03:03:03.041Z,11.48
2022-10-03T03:05:44.911Z,11.41
2022-10-03T03:08:33.621Z,11.27
2022-10-03T03:11:18.624Z,11.37
2022-10-03T03:13:54.472Z,11.45
2022-10-03T03:16:39.460Z,11.52
2022-10-03T03:19:24.525Z,11.59
2022-10-03T03:22:02.507Z,11.69
2022-10-03T03:24:41.670Z,11.69
2022-10-03T03:27:28.259Z,11.69
2022-10-03T03:30:06.714Z,11.77
2022-10-03T03:32:37.336Z,11.78
2022-10-03T03:35:12.959Z,11.85
2022-10-03T03:37:48.591Z,11.87
2022-10-03T03:40:29.612Z,11.95
2022-10-03T03:42:55.841Z,11.97
2022-10-03T03:45:33.633Z,11.97
2022-10-03T03:48:14.492Z,11.89
2022-10-03T03:50:55.811Z,11.68
2022-10-03T03:53:29.960Z,11.72
2022-10-03T03:56:07.203Z,11.82
2022-10-03T03:58:41.828Z,11.67
2022-10-03T04:01:31.572Z,11.65
2022-10-03T04:04:07.094Z,11.59
2022-10-03T04:06:39.215Z,11.38
2022-10-03T04:09:14.514Z,11.63
2022-10-03T04:11:59.703Z,11.43
2022-10-03T04:14:44.190Z,11.53
2022-10-03T04:17:35.182Z,11.57
2022-10-03T04:20:04.361Z,11.51
2022-10-03T04:22:36.803Z,11.46
2022-10-03T04:25:06.032Z,11.47
2022-10-03T04:27:55.645Z,11.45
2022-10-03T04:30:30.203Z,11.60
2022-10-03T04:32:57.162Z,11.46
2022-10-03T04:35:29.546Z,11.44
2022-10-03T04:38:14.730Z,11.43
2022-10-03T04:41:02.997Z,11.43
2022-10-03T04:43:45.915Z,11.37
2022-10-03T04:46:27.252Z,11.28
2022-10-03T04:49:04.967Z,11.26
2022-10-03T04:51:43.119Z,11.29
2022-10-03T04:54:09.717Z,11.24
2022-10-03T04:56:51.145Z,11.28
2022-10-03T04:59:35.180Z,11.39
2022-10-03T05:02:03.176Z,11.33
2022-10-03T05:04:29.809Z,11.36
2022-10-03T05:07:06.166Z,11.34
2022-10-03T05:09:51.292Z,11.21
2022-10-03T05:12:36.556Z,11.15
2022-10-03T05:15:14.946Z,11.29
2022-10-03T05:17:46.836Z,11.31
2022-10-03T05:20:20.079Z,11.29
2022-10-03T05:23:02.384Z,11.37
2022-10-03T05:25:31.482Z,11.47
2022-10-03T05:28:03.513Z,11.39
2022-10-03T05:30:35.325Z,11.37
2022-10-03T05:33:19.484Z,11.51
2022-10-03T05:36:18.218Z,11.51
2022-10-03T05:39:03.105Z,11.55
2022-10-03T05:41:32.200Z,11.63
2022-10-03T05:44:01.254Z,11.55
2022-10-03T05:46:33.662Z,11.52
2022-10-03T05:49:23.672Z,11.61
2022-10-03T05:52:08.773Z,11.66
2022-10-03T05:55:01.612Z,11.64
2022-10-03T05:57:40.449Z,11.60
2022-10-03T06:00:18.947Z,11.45
2022-10-03T06:02:54.431Z,11.59
2022-10-03T06:05:39.316Z,11.52
2022-10-03T06:08:26.513Z,11.67
2022-10-03T06:11:01.461Z,11.44
2022-10-03T06:13:30.469Z,11.47
2022-10-03T06:16:02.795Z,11.36
2022-10-03T06:18:43.023Z,11.40
2022-10-03T06:21:15.095Z,11.18
2022-10-03T06:23:58.338Z,11.31
2022-10-03T06:26:42.898Z,11.46
2022-10-03T06:29:47.879Z,11.25
2022-10-03T06:32:33.414Z,11.39
2022-10-03T06:35:25.271Z,11.41
2022-10-03T06:38:04.136Z,11.52
2022-10-03T06:40:48.853Z,11.47
2022-10-03T06:43:34.060Z,11.51
2022-10-03T06:46:24.494Z,11.57
2022-10-03T06:49:09.571Z,11.54
2022-10-03T06:51:52.328Z,11.64
2022-10-03T06:54:24.639Z,11.57
2022-10-03T06:57:03.476Z,11.53
2022-10-03T06:59:41.738Z,11.51
2022-10-03T07:02:31.033Z,11.57
2022-10-03T07:05:09.927Z,11.55
2022-10-03T07:07:56.173Z,11.65
2022-10-03T07:10:31.560Z,11.75
2022-10-03T07:13:16.555Z,11.53
2022-10-03T07:16:26.045Z,11.63
2022-10-03T07:18:53.281Z,11.37
2022-10-03T07:21:25.515Z,11.56
2022-10-03T07:24:14.954Z,11.61
2022-10-03T07:26:57.332Z,11.78
2022-10-03T07:29:37.080Z,11.91
2022-10-03T07:32:06.338Z,11.99
2022-10-03T07:34:45.614Z,12.12
2022-10-03T07:37:38.462Z,12.12
2022-10-03T07:40:15.875Z,12.22
2022-10-03T07:43:01.148Z,12.31
2022-10-03T07:45:37.487Z,12.34
2022-10-03T07:48:18.798Z,12.46
2022-10-03T07:50:51.238Z,12.48
2022-10-03T07:53:44.906Z,12.39
2022-10-03T07:56:26.186Z,12.38
2022-10-03T07:59:01.725Z,12.52
2022-10-03T08:01:43.286Z,12.39
2022-10-03T08:04:15.877Z,12.46
2022-10-03T08:06:50.203Z,12.49
2022-10-03T08:09:19.431Z,12.40
2022-10-03T08:11:53.567Z,12.40
2022-10-03T08:14:32.926Z,12.43
2022-10-03T08:16:59.466Z,12.38
2022-10-03T08:19:41.212Z,12.44
2022-10-03T08:22:25.367Z,12.34
2022-10-03T08:25:07.184Z,12.59
2022-10-03T08:27:44.560Z,12.41
2022-10-03T08:30:38.561Z,12.37
2022-10-03T08:33:25.399Z,12.24
2022-10-03T08:36:10.173Z,12.32
2022-10-03T08:38:52.038Z,12.44
2022-10-03T08:41:33.987Z,12.44
2022-10-03T08:44:18.862Z,12.55
2022-10-03T08:47:01.448Z,12.52
2022-10-03T08:49:46.574Z,12.58
2022-10-03T08:52:32.204Z,12.72
2022-10-03T08:55:14.611Z,12.64
2022-10-03T08:58:04.566Z,12.66
2022-10-03T09:00:46.961Z,12.51
2022-10-03T09:03:36.851Z,12.69
2022-10-03T09:06:09.568Z,12.72
2022-10-03T09:08:57.403Z,12.84
2022-10-03T09:11:34.531Z,12.77
2022-10-03T09:14:19.447Z,12.74
2022-10-03T09:17:04.498Z,12.89
2022-10-03T09:19:49.634Z,12.82
2022-10-03T09:22:32.078Z,12.92
2022-10-03T09:25:07.686Z,13.00
2022-10-03T09:27:52.145Z,13.13
2022-10-03T09:30:44.801Z,13.12
2022-10-03T09:33:13.920Z,13.34
2022-10-03T09:35:43.215Z,13.20
2022-10-03T09:38:22.308Z,13.32
2022-10-03T09:41:07.133Z,13.23
2022-10-03T09:43:33.387Z,13.43
2022-10-03T09:46:19.182Z,13.53
2022-10-03T09:48:45.463Z,13.56
2022-10-03T09:51:11.726Z,13.57
2022-10-03T09:53:58.241Z,13.68
2022-10-03T09:56:44.216Z,13.65
2022-10-03T09:59:16.555Z,13.64
2022-10-03T10:01:45.834Z,13.58
2022-10-03T10:04:53.773Z,13.61
2022-10-03T10:07:39.970Z,13.41
2022-10-03T10:10:24.898Z,13.41
2022-10-03T10:13:10.186Z,13.55
2022-10-03T10:15:48.682Z,13.53
2022-10-03T10:18:21.138Z,13.53
2022-10-03T10:20:50.384Z,13.61
2022-10-03T10:23:39.097Z,13.52
2022-10-03T10:26:27.453Z,13.53
2022-10-03T10:28:55.577Z,13.52
2022-10-03T10:31:40.493Z,13.50
2022-10-03T10:34:16.061Z,13.54
2022-10-03T10:37:10.203Z,13.45
2022-10-03T10:39:45.921Z,13.62
2022-10-03T10:42:18.403Z,13.59
2022-10-03T10:44:51.404Z,13.50
2022-10-03T10:47:36.208Z,13.49
2022-10-03T10:50:08.600Z,13.44
2022-10-03T10:52:50.441Z,13.36
2022-10-03T10:55:35.171Z,13.46
2022-10-03T10:58:30.652Z,13.42
2022-10-03T11:01:12.095Z,13.44
2022-10-03T11:03:57.187Z,13.36
2022-10-03T11:06:23.999Z,13.43
2022-10-03T11:09:13.374Z,13.46
2022-10-03T11:11:58.209Z,13.49
2022-10-03T11:14:36.763Z,13.55
2022-10-03T11:17:19.875Z,13.51
2022-10-03T11:19:58.073Z,13.51
2022-10-03T11:23:04.826Z,13.74
2022-10-03T11:25:50.210Z,13.80
2022-10-03T11:28:45.119Z,13.89
2022-10-03T11:31:23.834Z,13.76
2022-10-03T11:34:08.437Z,13.92
2022-10-03T11:37:00.692Z,14.00
2022-10-03T11:39:42.105Z,14.08
2022-10-03T11:42:28.372Z,14.08
2022-10-03T11:44:59.224Z,13.95
2022-10-03T11:47:25.441Z,13.98
2022-10-03T11:49:57.910Z,13.97
2022-10-03T11:52:27.898Z,13.97
2022-10-03T11:55:26.147Z,13.87
2022-10-03T11:58:11.138Z,13.71
2022-10-03T12:00:40.022Z,13.78
2022-10-03T12:03:06.318Z,13.72
2022-10-03T12:05:32.569Z,13.73
2022-10-03T12:08:17.659Z,13.65
2022-10-03T12:10:58.942Z,13.85
2022-10-03T12:13:36.908Z,13.86
2022-10-03T12:16:06.133Z,13.84
2022-10-03T12:18:44.612Z,13.74
2022-10-03T12:21:12.954Z,13.84
2022-10-03T12:24:02.574Z,13.76
2022-10-03T12:26:37.550Z,13.82
2022-10-03T12:29:08.707Z,13.84
2022-10-03T12:31:40.180Z,13.65
2022-10-03T12:34:25.600Z,13.79
2022-10-03T12:37:11.690Z,13.68
2022-10-03T12:40:04.117Z,13.80
2022-10-03T12:42:45.131Z,13.63
2022-10-03T12:45:17.238Z,13.66
2022-10-03T12:47:56.918Z,13.76
2022-10-03T12:50:39.458Z,13.48
2022-10-03T12:53:23.671Z,13.60
2022-10-03T12:56:22.439Z,13.58
2022-10-03T12:58:55.612Z,13.64
2022-10-03T13:01:30.700Z,13.71
2022-10-03T13:04:02.772Z,13.62
2022-10-03T13:07:02.221Z,13.60
2022-10-03T13:09:43.452Z,13.62
2022-10-03T13:12:25.431Z,13.72
2022-10-03T13:15:06.572Z,13.77
2022-10-03T13:17:40.416Z,13.67
2022-10-03T13:20:06.755Z,13.88
2022-10-03T13:22:33.123Z,13.99
2022-10-03T13:25:07.735Z,13.99
2022-10-03T13:27:52.565Z,14.11
2022-10-03T13:30:29.017Z,14.16
2022-10-03T13:33:06.572Z,14.13
2022-10-03T13:35:58.380Z,14.31
2022-10-03T13:38:45.763Z,14.20
2022-10-03T13:41:19.439Z,14.28
2022-10-03T13:43:49.804Z,14.37
2022-10-03T13:46:19.922Z,14.37
2022-10-03T13:48:55.043Z,14.32
2022-10-03T13:51:27.770Z,14.36
2022-10-03T13:54:01.326Z,14.26
2022-10-03T13:56:47.859Z,14.31
2022-10-03T13:59:25.009Z,14.22
2022-10-03T14:01:58.214Z,14.22
2022-10-03T14:04:33.670Z,14.11
2022-10-03T14:07:08.803Z,14.17
2022-10-03T14:09:35.054Z,14.29
2022-10-03T14:12:07.434Z,14.28
2022-10-03T14:14:54.195Z,14.18
2022-10-03T14:17:32.936Z,14.23
2022-10-03T14:20:15.167Z,14.15
2022-10-03T14:23:00.734Z,14.16
2022-10-03T14:25:27.023Z,14.18
2022-10-03T14:27:54.915Z,14.16
2022-10-03T14:30:21.606Z,14.17
2022-10-03T14:32:48.523Z,14.08
2022-10-03T14:35:37.813Z,14.11
2022-10-03T14:38:09.348Z,14.11
2022-10-03T14:40:42.241Z,14.17
2022-10-03T14:43:32.986Z,14.10
2022-10-03T14:46:00.833Z,14.11
2022-10-03T14:48:27.773Z,14.10
2022-10-03T14:50:57.529Z,14.08
2022-10-03T14:53:29.642Z,14.11
2022-10-03T14:56:00.986Z,14.04
2022-10-03T14:58:35.338Z,14.13
2022-10-03T15:01:13.015Z,13.99
2022-10-03T15:03:42.511Z,14.01
2022-10-03T15:06:19.112Z,13.94
2022-10-03T15:08:55.946Z,14.02
2022-10-03T15:11:26.879Z,14.10
2022-10-03T15:14:04.892Z,14.16
2022-10-03T15:16:34.489Z,14.22
2022-10-03T15:19:07.272Z,14.20
2022-10-03T15:21:35.183Z,14.30
2022-10-03T15:24:03.787Z,14.34
2022-10-03T15:26:32.940Z,14.35
2022-10-03T15:29:00.949Z,14.34
2022-10-03T15:31:37.601Z,14.34
2022-10-03T15:34:14.397Z,14.38
2022-10-03T15:36:42.167Z,14.39
2022-10-03T15:39:17.259Z,14.44
2022-10-03T15:41:55.689Z,14.37
2022-10-03T15:44:33.576Z,14.34
2022-10-03T15:47:05.005Z,14.24
2022-10-03T15:49:37.256Z,14.22
2022-10-03T15:52:15.688Z,14.22
2022-10-03T15:54:45.730Z,14.13
2022-10-03T15:57:17.499Z,14.01
2022-10-03T15:59:47.007Z,14.09
2022-10-03T16:02:19.055Z,13.96
2022-10-03T16:04:48.814Z,13.91
2022-10-03T16:07:36.855Z,13.91
2022-10-03T16:10:32.797Z,13.92
2022-10-03T16:13:01.927Z,13.77
2022-10-03T16:15:34.120Z,13.78
2022-10-03T16:18:02.348Z,13.67
2022-10-03T16:20:34.750Z,13.64
2022-10-03T16:23:19.238Z,13.49
2022-10-03T16:25:49.020Z,13.49
2022-10-03T16:28:20.712Z,13.53
2022-10-03T16:30:56.172Z,13.62
2022-10-03T16:33:42.718Z,13.44
2022-10-03T16:36:10.174Z,13.35
2022-10-03T16:38:37.761Z,13.31
2022-10-03T16:41:24.503Z,13.52
2022-10-03T16:44:13.949Z,13.48
2022-10-03T16:46:43.091Z,13.26
2022-10-03T16:49:29.333Z,13.28
2022-10-03T16:52:06.155Z,13.20
2022-10-03T16:54:33.341Z,13.25
2022-10-03T16:57:00.728Z,13.19
2022-10-03T16:59:28.782Z,13.19
2022-10-03T17:01:55.428Z,13.20
2022-10-03T17:04:26.531Z,13.27
2022-10-03T17:06:55.484Z,13.36
2022-10-03T17:09:24.536Z,13.37
2022-10-03T17:11:53.519Z,13.40
2022-10-03T17:14:20.744Z,13.44
2022-10-03T17:16:57.037Z,13.44
2022-10-03T17:19:55.735Z,13.54
2022-10-03T17:22:27.995Z,13.54
2022-10-03T17:25:16.207Z,13.53
2022-10-03T17:27:47.480Z,13.55
2022-10-03T17:30:14.303Z,13.45
2022-10-03T17:32:44.959Z,13.53
2022-10-03T17:35:15.425Z,13.44
2022-10-03T17:37:55.774Z,13.46
2022-10-03T17:40:29.041Z,13.41
2022-10-03T17:42:57.480Z,13.33
2022-10-03T17:45:42.857Z,13.36
2022-10-03T17:48:20.498Z,13.24
2022-10-03T17:50:49.517Z,13.21
2022-10-03T17:53:20.122Z,13.10
2022-10-03T17:55:47.952Z,13.14
2022-10-03T17:58:17.102Z,13.03
2022-10-03T18:00:46.580Z,12.98
2022-10-03T18:03:31.786Z,12.86
2022-10-03T18:06:00.397Z,13.07
2022-10-03T18:08:28.660Z,12.94
2022-10-03T18:10:56.488Z,12.90
2022-10-03T18:13:30.406Z,12.81
2022-10-03T18:16:15.249Z,12.74
2022-10-03T18:19:00.490Z,12.68
2022-10-03T18:21:27.018Z,12.74
2022-10-03T18:24:12.131Z,12.76
2022-10-03T18:26:43.758Z,12.69
2022-10-03T18:29:13.407Z,12.77
2022-10-03T18:31:45.498Z,12.59
2022-10-03T18:34:20.215Z,12.54
2022-10-03T18:36:51.139Z,12.67
2022-10-03T18:39:19.043Z,12.61
2022-10-03T18:41:49.530Z,12.66
2022-10-03T18:44:20.439Z,12.56
2022-10-03T18:46:50.890Z,12.65
2022-10-03T18:49:33.507Z,12.69
2022-10-03T18:52:03.714Z,12.66
2022-10-03T18:54:59.351Z,12.62
2022-10-03T18:57:25.698Z,12.61
2022-10-03T18:59:56.228Z,12.56
2022-10-03T19:02:26.737Z,12.68
2022-10-03T19:04:56.732Z,12.63
2022-10-03T19:07:24.913Z,12.80
2022-10-03T19:10:11.767Z,12.81
2022-10-03T19:12:42.162Z,12.88
2022-10-03T19:15:14.572Z,12.87
2022-10-03T19:17:56.175Z,13.06
2022-10-03T19:20:27.670Z,13.00
2022-10-03T19:23:14.057Z,13.09
2022-10-03T19:25:42.783Z,13.13
2022-10-03T19:28:29.504Z,13.20
2022-10-03T19:31:11.307Z,13.22
2022-10-03T19:33:42.444Z,13.30
2022-10-03T19:36:12.593Z,13.09
2022-10-03T19:38:42.364Z,13.12
2022-10-03T19:41:14.639Z,13.28
2022-10-03T19:43:43.155Z,13.20
2022-10-03T19:46:15.430Z,13.09
2022-10-03T19:48:54.310Z,13.11
2022-10-03T19:51:25.695Z,13.11
2022-10-03T19:53:52.851Z,13.07
2022-10-03T19:56:19.878Z,12.98
2022-10-03T19:58:47.700Z,12.97
2022-10-03T20:01:14.224Z,13.04
2022-10-03T20:03:47.935Z,13.02
2022-10-03T20:06:17.534Z,12.88
2022-10-03T20:08:46.948Z,13.00
2022-10-03T20:11:31.775Z,12.85
2022-10-03T20:14:00.558Z,12.89
2022-10-03T20:16:30.164Z,12.93
2022-10-03T20:19:09.257Z,12.80
2022-10-03T20:21:36.215Z,12.83
2022-10-03T20:24:07.886Z,12.85
2022-10-03T20:26:54.549Z,12.76
2022-10-03T20:29:31.306Z,12.69
2022-10-03T20:31:58.999Z,12.79
2022-10-03T20:34:26.202Z,12.70
2022-10-03T20:36:57.787Z,12.70
2022-10-03T20:39:33.766Z,12.84
2022-10-03T20:42:25.923Z,12.70
2022-10-03T20:45:02.747Z,12.72
2022-10-03T20:47:31.890Z,12.74
2022-10-03T20:50:01.795Z,12.68
2022-10-03T20:52:28.221Z,12.72
2022-10-03T20:55:03.052Z,12.71
2022-10-03T20:57:58.913Z,12.67
2022-10-03T21:00:25.670Z,12.77
2022-10-03T21:03:07.509Z,12.76
2022-10-03T21:05:36.520Z,12.86
2022-10-03T21:08:04.570Z,12.90
2022-10-03T21:10:33.683Z,13.00
2022-10-03T21:13:01.478Z,12.99
2022-10-03T21:15:29.860Z,13.13
2022-10-03T21:17:57.091Z,13.24
2022-10-03T21:20:27.218Z,13.21
2022-10-03T21:22:55.347Z,13.12
2022-10-03T21:25:29.769Z,13.28
2022-10-03T21:27:57.323Z,13.25
2022-10-03T21:30:46.708Z,13.27
2022-10-03T21:33:19.036Z,13.19
2022-10-03T21:35:46.900Z,13.21
2022-10-03T21:38:31.252Z,13.09
2022-10-03T21:41:00.288Z,13.20
2022-10-03T21:43:35.658Z,13.05
2022-10-03T21:46:02.062Z,13.12
2022-10-03T21:48:37.225Z,13.08
2022-10-03T21:51:23.299Z,12.95
2022-10-03T21:54:12.669Z,12.98
2022-10-03T21:56:44.796Z,12.87
2022-10-03T21:59:16.861Z,12.81
2022-10-03T22:01:43.404Z,12.82
2022-10-03T22:04:33.197Z,12.89
2022-10-03T22:07:05.750Z,12.87
2022-10-03T22:09:32.245Z,12.67
2022-10-03T22:12:00.286Z,12.81
2022-10-03T22:14:44.982Z,12.74
2022-10-03T22:17:49.843Z,12.81
2022-10-03T22:20:26.356Z,12.77
2022-10-03T22:23:08.862Z,12.75
2022-10-03T22:25:39.026Z,12.74
2022-10-03T22:28:11.488Z,12.69
2022-10-03T22:30:40.870Z,12.73
2022-10-03T22:33:07.791Z,12.65
2022-10-03T22:35:46.132Z,12.61
2022-10-03T22:38:12.804Z,12.62
2022-10-03T22:40:39.984Z,12.65
2022-10-03T22:43:08.336Z,12.58
2022-10-03T22:45:38.189Z,12.64
2022-10-03T22:48:06.856Z,12.51
2022-10-03T22:50:35.809Z,12.64
2022-10-03T22:53:02.615Z,12.62
2022-10-03T22:55:29.809Z,12.61
2022-10-03T22:57:56.922Z,12.56
2022-10-03T23:00:25.040Z,12.59
2022-10-03T23:02:57.920Z,12.71
2022-10-03T23:05:42.990Z,12.78
2022-10-03T23:08:25.760Z,13.02
2022-10-03T23:10:55.241Z,12.95
2022-10-03T23:13:21.463Z,13.11
2022-10-03T23:15:50.819Z,13.02
2022-10-03T23:18:32.353Z,13.00
2022-10-03T23:21:01.700Z,13.03
2022-10-03T23:23:31.013Z,13.05
2022-10-03T23:26:16.101Z,13.05
2022-10-03T23:28:57.296Z,13.03
2022-10-03T23:31:42.440Z,13.07
2022-10-03T23:34:09.882Z,13.15
2022-10-03T23:36:56.106Z,13.05
2022-10-03T23:39:45.987Z,12.94
2022-10-03T23:42:18.260Z,12.93
2022-10-03T23:47:32.636Z,12.98
2022-10-03T23:49:59.896Z,12.90
2022-10-03T23:52:28.337Z,12.80
2022-10-03T23:54:56.150Z,12.80
2022-10-03T23:57:26.513Z,12.80
2022-10-03T23:59:52.761Z,12.78
